TimeEDT,TemperatureF,Dew PointF,Humidity,Sea Level PressureIn,VisibilityMPH,Wind Direction,Wind SpeedMPH,Gust SpeedMPH,PrecipitationIn,Events,Conditions,WindDirDegrees,DateUTC
12:54 AM,39.0,36.0,89,30.20,10.0,Calm,Calm,-,N/A,,Clear,0,2012-10-12 04:54:00
1:54 AM,37.9,34.0,86,30.21,10.0,Calm,Calm,-,N/A,,Clear,0,2012-10-12 05:54:00
2:54 AM,39.0,36.0,89,30.18,10.0,Calm,Calm,-,N/A,,Clear,0,2012-10-12 06:54:00
3:54 AM,39.9,36.0,86,30.19,10.0,Calm,Calm,-,N/A,,Clear,0,2012-10-12 07:54:00
4:54 AM,43.0,37.9,82,30.20,10.0,Calm,Calm,-,N/A,,Mostly Cloudy,0,2012-10-12 08:54:00
5:54 AM,42.1,37.9,85,30.22,10.0,Calm,Calm,-,N/A,,Partly Cloudy,0,2012-10-12 09:54:00
6:54 AM,42.1,37.9,85,30.26,10.0,Calm,Calm,-,N/A,,Partly Cloudy,0,2012-10-12 10:54:00
7:54 AM,46.9,37.9,71,30.30,10.0,Variable,6.9,-,N/A,,Overcast,0,2012-10-12 11:54:00
8:54 AM,46.9,37.0,68,30.33,10.0,North,3.5,-,N/A,,Overcast,360,2012-10-12 12:54:00
10:54 AM,50.0,36.0,59,30.39,10.0,Variable,6.9,-,N/A,,Mostly Cloudy,0,2012-10-12 14:54:00
12:54 PM,55.0,32.0,42,30.39,10.0,Variable,5.8,-,N/A,,Clear,0,2012-10-12 16:54:00
1:54 PM,55.9,30.0,37,30.38,10.0,NNE,8.1,16.1,N/A,,Clear,20,2012-10-12 17:54:00
2:54 PM,57.9,28.9,33,30.36,10.0,North,8.1,-,N/A,,Clear,10,2012-10-12 18:54:00
3:54 PM,57.9,27.0,31,30.35,10.0,North,10.4,-,N/A,,Clear,350,2012-10-12 19:54:00
4:54 PM,57.0,26.1,30,30.35,10.0,Variable,5.8,-,N/A,,Clear,0,2012-10-12 20:54:00
5:54 PM,57.0,26.1,30,30.35,10.0,NNE,3.5,-,N/A,,Clear,20,2012-10-12 21:54:00
6:54 PM,53.1,26.1,35,30.37,10.0,Calm,Calm,-,N/A,,Clear,0,2012-10-12 22:54:00
7:54 PM,44.1,30.9,60,30.39,10.0,Calm,Calm,-,N/A,,Clear,0,2012-10-12 23:54:00
8:54 PM,42.1,30.9,65,30.40,10.0,NNE,3.5,-,N/A,,Clear,20,2012-10-13 00:54:00
9:54 PM,36.0,30.9,82,30.40,10.0,Calm,Calm,-,N/A,,Clear,0,2012-10-13 01:54:00
10:54 PM,35.1,32.0,89,30.41,10.0,Calm,Calm,-,N/A,,Clear,0,2012-10-13 02:54:00
11:54 PM,34.0,30.0,85,30.40,10.0,Calm,Calm,-,N/A,,Clear,0,2012-10-13 03:54:00